Wetterstation Vordersexau
Wetterdaten: Woche 11.04.16 - 17.04.16 (KW15)
Datum Zeit Temp. A. Feuchte A. Luftdruck Regen Wind Richtung Taupunkt Windchill Windben
11.04.2016 00:00 7,1 C 74 % 1007,2 hPa 0,0 l/m 0,0 km/h SO 2,8 C 7,1 C 0,0 km/h
11.04.2016 01:00 6,3 C 74 % 1007,6 hPa 0,0 l/m 0,0 km/h SO 2,0 C 6,3 C 0,0 km/h
11.04.2016 02:00 6,9 C 79 % 1007,9 hPa 0,0 l/m 3,9 km/h SO 3,5 C 6,9 C 2,2 km/h
11.04.2016 03:00 7,5 C 79 % 1008,4 hPa 0,0 l/m 9,7 km/h O 4,1 C 5,0 C 5,4 km/h
11.04.2016 04:00 6,1 C 79 % 1008,2 hPa 0,0 l/m 0,0 km/h O 2,7 C 6,1 C 0,0 km/h
11.04.2016 05:00 4,8 C 82 % 1008,1 hPa 0,0 l/m 0,0 km/h O-SO 2,0 C 4,8 C 0,0 km/h
11.04.2016 06:00 4,1 C 83 % 1008,1 hPa 0,0 l/m 0,0 km/h N-NO 1,5 C 4,1 C 0,0 km/h
11.04.2016 07:00 4,4 C 85 % 1008,2 hPa 0,0 l/m 0,0 km/h N-NO 2,1 C 4,4 C 0,0 km/h
11.04.2016 08:00 10,9 C 79 % 1008,5 hPa 0,0 l/m 0,0 km/h N 7,4 C 10,9 C 0,0 km/h
11.04.2016 09:00 16,2 C 58 % 1008,5 hPa 0,0 l/m 0,0 km/h NW 7,9 C 16,2 C 0,0 km/h
11.04.2016 10:00 18,8 C 52 % 1008,5 hPa 0,0 l/m 0,0 km/h N-NW 8,7 C 18,8 C 0,0 km/h
11.04.2016 11:00 18,9 C 52 % 1008,3 hPa 0,0 l/m 0,0 km/h N-NO 8,8 C 18,9 C 0,0 km/h
11.04.2016 12:00 20,4 C 50 % 1007,8 hPa 0,0 l/m 11,0 km/h W-NW 9,6 C 18,8 C 6,1 km/h
11.04.2016 13:00 22,5 C 48 % 1006,9 hPa 0,0 l/m 5,2 km/h N 10,9 C 22,5 C 2,9 km/h
11.04.2016 14:00 23,6 C 44 % 1006,2 hPa 0,0 l/m 5,2 km/h N-NW 10,6 C 23,6 C 2,9 km/h
11.04.2016 15:00 23,6 C 45 % 1006,2 hPa 0,0 l/m 13,6 km/h S-SO 11,0 C 21,9 C 7,6 km/h
11.04.2016 16:00 14,1 C 67 % 1007,3 hPa 2,9 l/m 0,0 km/h NO 8,1 C 14,1 C 0,0 km/h
11.04.2016 17:00 22,1 C 55 % 1007,5 hPa 1,2 l/m 0,0 km/h SO 12,6 C 22,1 C 0,0 km/h
11.04.2016 18:00 17,3 C 62 % 1007,7 hPa 0,0 l/m 0,0 km/h O-NO 9,9 C 17,3 C 0,0 km/h
11.04.2016 19:00 15,8 C 70 % 1007,8 hPa 0,0 l/m 0,0 km/h SO 10,3 C 15,8 C 0,0 km/h
11.04.2016 20:00 11,6 C 81 % 1008,2 hPa 0,0 l/m 0,0 km/h S-SO 8,5 C 11,6 C 0,0 km/h
11.04.2016 21:00 11,1 C 85 % 1008,8 hPa 0,0 l/m 1,3 km/h SO 8,7 C 11,1 C 0,7 km/h
11.04.2016 22:00 9,8 C 85 % 1008,1 hPa 0,0 l/m 0,0 km/h SO 7,4 C 9,8 C 0,0 km/h
11.04.2016 23:00 9,8 C 85 % 1008,2 hPa 0,0 l/m 0,0 km/h O 7,4 C 9,8 C 0,0 km/h
12.04.2016 00:00 9,6 C 86 % 1008,7 hPa 0,0 l/m 0,0 km/h NO 7,4 C 9,6 C 0,0 km/h
12.04.2016 01:00 9,3 C 87 % 1008,9 hPa 0,0 l/m 0,0 km/h O-NO 7,2 C 9,3 C 0,0 km/h
12.04.2016 02:00 9,3 C 87 % 1008,4 hPa 0,4 l/m 0,0 km/h SW 7,2 C 9,3 C 0,0 km/h
12.04.2016 03:00 9,5 C 87 % 1010,0 hPa 0,0 l/m 0,0 km/h S-SO 7,4 C 9,5 C 0,0 km/h
12.04.2016 04:00 9,4 C 87 % 1010,6 hPa 0,8 l/m 0,0 km/h SO 7,3 C 9,4 C 0,0 km/h
12.04.2016 05:00 9,0 C 86 % 1009,8 hPa 0,0 l/m 0,0 km/h SO 6,8 C 9,0 C 0,0 km/h
12.04.2016 06:00 8,2 C 86 % 1009,3 hPa 0,0 l/m 0,0 km/h SO 6,0 C 8,2 C 0,0 km/h
12.04.2016 07:00 8,5 C 86 % 1009,6 hPa 0,0 l/m 0,0 km/h SO 6,3 C 8,5 C 0,0 km/h
12.04.2016 08:00 12,8 C 84 % 1009,8 hPa 0,0 l/m 0,0 km/h S-SO 10,2 C 12,8 C 0,0 km/h
12.04.2016 09:00 19,0 C 71 % 1009,8 hPa 0,0 l/m 0,0 km/h S-SO 13,6 C 19,0 C 0,0 km/h
12.04.2016 10:00 14,7 C 74 % 1009,7 hPa 0,0 l/m 0,0 km/h NO 10,1 C 14,7 C 0,0 km/h
12.04.2016 11:00 18,3 C 68 % 1009,2 hPa 0,0 l/m 0,0 km/h N-NO 12,3 C 18,3 C 0,0 km/h
12.04.2016 12:00 20,3 C 61 % 1008,8 hPa 0,0 l/m 0,0 km/h W 12,5 C 20,3 C 0,0 km/h
12.04.2016 13:00 22,9 C 48 % 1008,1 hPa 0,0 l/m 9,1 km/h N-NO 11,3 C 22,1 C 5,0 km/h
12.04.2016 14:00 23,6 C 44 % 1007,6 hPa 0,0 l/m 0,0 km/h N-NO 10,6 C 23,6 C 0,0 km/h
12.04.2016 15:00 24,9 C 40 % 1006,9 hPa 0,0 l/m 0,0 km/h S 10,4 C 24,9 C 0,0 km/h
12.04.2016 16:00 22,2 C 47 % 1006,5 hPa 0,0 l/m 7,1 km/h SW 10,3 C 22,0 C 4,0 km/h
12.04.2016 17:00 19,5 C 53 % 1005,9 hPa 0,0 l/m 0,0 km/h W-SW 9,7 C 19,5 C 0,0 km/h
12.04.2016 18:00 15,2 C 58 % 1006,4 hPa 0,0 l/m 7,8 km/h S 7,0 C 14,4 C 4,3 km/h
12.04.2016 19:00 14,3 C 64 % 1006,2 hPa 0,0 l/m 0,0 km/h S-SO 7,6 C 14,3 C 0,0 km/h
12.04.2016 20:00 12,3 C 76 % 1007,9 hPa 0,4 l/m 1,3 km/h S-SO 8,2 C 12,3 C 0,7 km/h
12.04.2016 21:00 10,9 C 83 % 1008,4 hPa 1,2 l/m 0,0 km/h O-NO 8,1 C 10,9 C 0,0 km/h
12.04.2016 22:00 10,1 C 85 % 1009,2 hPa 1,7 l/m 0,0 km/h SO 7,7 C 10,1 C 0,0 km/h
12.04.2016 23:00 9,6 C 86 % 1008,9 hPa 0,4 l/m 0,0 km/h SO 7,4 C 9,6 C 0,0 km/h
13.04.2016 00:00 9,1 C 87 % 1007,9 hPa 0,0 l/m 10,4 km/h O-SO 7,1 C 6,4 C 5,8 km/h
13.04.2016 01:00 8,2 C 87 % 1007,8 hPa 0,0 l/m 0,0 km/h S-SO 6,2 C 8,2 C 0,0 km/h
13.04.2016 02:00 8,4 C 87 % 1007,7 hPa 0,0 l/m 5,2 km/h S-SO 6,4 C 8,4 C 2,9 km/h
13.04.2016 03:00 8,3 C 87 % 1007,4 hPa 0,0 l/m 0,0 km/h S-SO 6,3 C 8,3 C 0,0 km/h
13.04.2016 04:00 8,5 C 86 % 1007,4 hPa 0,0 l/m 0,0 km/h O-NO 6,3 C 8,5 C 0,0 km/h
13.04.2016 05:00 8,6 C 86 % 1006,5 hPa 0,4 l/m 0,0 km/h O-NO 6,4 C 8,6 C 0,0 km/h
13.04.2016 06:00 8,6 C 86 % 1005,8 hPa 0,0 l/m 0,0 km/h SO 6,4 C 8,6 C 0,0 km/h
13.04.2016 07:00 9,1 C 86 % 1005,3 hPa 0,0 l/m 0,0 km/h W 6,9 C 9,1 C 0,0 km/h
13.04.2016 08:00 10,1 C 86 % 1006,1 hPa 0,0 l/m 13,6 km/h SO 7,9 C 5,9 C 7,6 km/h
13.04.2016 09:00 10,1 C 86 % 1005,7 hPa 0,4 l/m 0,0 km/h W 7,9 C 10,1 C 0,0 km/h
13.04.2016 10:00 9,9 C 86 % 1006,3 hPa 0,8 l/m 0,0 km/h SO 7,7 C 9,9 C 0,0 km/h
13.04.2016 11:00 11,8 C 87 % 1006,1 hPa 0,8 l/m 11,7 km/h SW 9,7 C 8,7 C 6,5 km/h
13.04.2016 12:00 13,1 C 80 % 1006,3 hPa 0,0 l/m 15,6 km/h W 9,7 C 8,7 C 8,6 km/h
13.04.2016 13:00 14,8 C 76 % 1006,3 hPa 0,0 l/m 16,8 km/h SW 10,6 C 10,4 C 9,4 km/h
13.04.2016 14:00 16,6 C 70 % 1006,0 hPa 0,0 l/m 7,1 km/h S 11,1 C 16,2 C 4,0 km/h
13.04.2016 15:00 19,5 C 61 % 1005,5 hPa 0,0 l/m 6,5 km/h N-NW 11,8 C 19,5 C 3,6 km/h
13.04.2016 16:00 14,8 C 67 % 1005,5 hPa 0,0 l/m 0,0 km/h O 8,7 C 14,8 C 0,0 km/h
13.04.2016 17:00 14,3 C 75 % 1005,8 hPa 0,4 l/m 0,0 km/h SO 9,9 C 14,3 C 0,0 km/h
13.04.2016 18:00 14,9 C 76 % 1006,0 hPa 0,0 l/m 0,0 km/h SO 10,7 C 14,9 C 0,0 km/h
13.04.2016 19:00 12,4 C 78 % 1006,0 hPa 0,0 l/m 0,0 km/h NW 8,7 C 12,4 C 0,0 km/h
13.04.2016 20:00 10,2 C 82 % 1006,9 hPa 0,0 l/m 0,0 km/h NW 7,3 C 10,2 C 0,0 km/h
13.04.2016 21:00 9,3 C 84 % 1007,5 hPa 0,0 l/m 0,0 km/h NW 6,7 C 9,3 C 0,0 km/h
13.04.2016 22:00 8,9 C 86 % 1008,1 hPa 0,0 l/m 0,0 km/h NW 6,7 C 8,9 C 0,0 km/h
13.04.2016 23:00 9,0 C 87 % 1008,6 hPa 0,8 l/m 0,0 km/h SO 7,0 C 9,0 C 0,0 km/h
14.04.2016 00:00 8,9 C 87 % 1008,7 hPa 0,8 l/m 0,0 km/h SO 6,9 C 8,9 C 0,0 km/h
14.04.2016 01:00 8,6 C 86 % 1008,8 hPa 0,0 l/m 0,0 km/h O-NO 6,4 C 8,6 C 0,0 km/h
14.04.2016 02:00 8,3 C 86 % 1009,2 hPa 0,0 l/m 0,0 km/h O-NO 6,1 C 8,3 C 0,0 km/h
14.04.2016 03:00 8,2 C 86 % 1009,4 hPa 0,0 l/m 0,0 km/h O-NO 6,0 C 8,2 C 0,0 km/h
14.04.2016 04:00 8,1 C 86 % 1009,7 hPa 0,0 l/m 0,0 km/h O-SO 5,9 C 8,1 C 0,0 km/h
14.04.2016 05:00 7,5 C 85 % 1009,6 hPa 0,0 l/m 0,0 km/h O-SO 5,1 C 7,5 C 0,0 km/h
14.04.2016 06:00 7,9 C 85 % 1010,0 hPa 0,0 l/m 0,0 km/h SO 5,5 C 7,9 C 0,0 km/h
14.04.2016 07:00 8,4 C 85 % 1010,4 hPa 0,0 l/m 0,0 km/h W-SW 6,0 C 8,4 C 0,0 km/h
14.04.2016 08:00 10,3 C 85 % 1011,0 hPa 0,0 l/m 0,0 km/h W 7,9 C 10,3 C 0,0 km/h
14.04.2016 09:00 11,6 C 86 % 1011,9 hPa 0,0 l/m 3,2 km/h SW 9,3 C 11,6 C 1,8 km/h
14.04.2016 10:00 15,9 C 76 % 1011,9 hPa 0,0 l/m 5,8 km/h W-NW 11,7 C 15,9 C 3,2 km/h
14.04.2016 11:00 15,3 C 69 % 1011,9 hPa 0,0 l/m 17,5 km/h W 9,6 C 10,8 C 9,7 km/h
14.04.2016 12:00 15,8 C 69 % 1012,0 hPa 0,0 l/m 19,4 km/h W-SW 10,1 C 10,9 C 10,8 km/h
14.04.2016 13:00 19,1 C 60 % 1011,6 hPa 0,0 l/m 21,4 km/h SW 11,1 C 14,8 C 11,9 km/h
14.04.2016 14:00 20,2 C 55 % 1010,9 hPa 0,0 l/m 9,1 km/h W 10,9 C 19,2 C 5,0 km/h
14.04.2016 15:00 20,1 C 50 % 1010,2 hPa 0,0 l/m 22,7 km/h W 9,3 C 15,9 C 12,6 km/h
14.04.2016 16:00 21,7 C 47 % 1009,6 hPa 0,0 l/m 0,0 km/h W-NW 9,9 C 21,7 C 0,0 km/h
14.04.2016 17:00 24,9 C 38 % 1009,9 hPa 0,0 l/m 0,0 km/h N 9,6 C 24,9 C 0,0 km/h
14.04.2016 18:00 23,6 C 37 % 1009,5 hPa 0,0 l/m 0,0 km/h N 8,0 C 23,6 C 0,0 km/h
14.04.2016 19:00 17,8 C 47 % 1009,5 hPa 0,0 l/m 0,0 km/h O 6,3 C 17,8 C 0,0 km/h
14.04.2016 20:00 11,9 C 66 % 1009,1 hPa 0,0 l/m 0,0 km/h NO 5,8 C 11,9 C 0,0 km/h
14.04.2016 21:00 10,3 C 73 % 1009,2 hPa 0,0 l/m 0,0 km/h SO 5,7 C 10,3 C 0,0 km/h
14.04.2016 22:00 9,9 C 79 % 1008,4 hPa 0,0 l/m 0,0 km/h SO 6,4 C 9,9 C 0,0 km/h
14.04.2016 23:00 9,6 C 81 % 1008,4 hPa 0,0 l/m 7,1 km/h SO 6,5 C 9,1 C 4,0 km/h
15.04.2016 00:00 9,1 C 82 % 1008,0 hPa 0,0 l/m 0,0 km/h O-SO 6,2 C 9,1 C 0,0 km/h
15.04.2016 01:00 9,4 C 83 % 1007,6 hPa 0,0 l/m 0,0 km/h SO 6,7 C 9,4 C 0,0 km/h
15.04.2016 02:00 9,4 C 84 % 1007,0 hPa 0,0 l/m 1,3 km/h SO 6,8 C 9,4 C 0,7 km/h
15.04.2016 03:00 9,4 C 84 % 1006,8 hPa 0,0 l/m 0,0 km/h SO 6,8 C 9,4 C 0,0 km/h
15.04.2016 04:00 9,3 C 85 % 1006,0 hPa 0,0 l/m 0,0 km/h SO 6,9 C 9,3 C 0,0 km/h
15.04.2016 05:00 9,3 C 85 % 1005,5 hPa 0,0 l/m 0,0 km/h N 6,9 C 9,3 C 0,0 km/h
15.04.2016 06:00 8,9 C 85 % 1005,7 hPa 0,4 l/m 0,0 km/h N 6,5 C 8,9 C 0,0 km/h
15.04.2016 07:00 9,0 C 86 % 1007,7 hPa 2,1 l/m 0,0 km/h S 6,8 C 9,0 C 0,0 km/h
15.04.2016 08:00 8,6 C 87 % 1007,3 hPa 3,3 l/m 0,0 km/h SO 6,6 C 8,6 C 0,0 km/h
15.04.2016 09:00 8,9 C 87 % 1007,8 hPa 1,7 l/m 10,4 km/h SO 6,9 C 6,1 C 5,8 km/h
15.04.2016 10:00 9,0 C 86 % 1008,2 hPa 1,7 l/m 0,0 km/h SO 6,8 C 9,0 C 0,0 km/h
15.04.2016 11:00 9,9 C 86 % 1008,3 hPa 1,2 l/m 0,0 km/h S-SW 7,7 C 9,9 C 0,0 km/h
15.04.2016 12:00 10,9 C 87 % 1008,6 hPa 0,4 l/m 2,6 km/h S 8,8 C 10,9 C 1,4 km/h
15.04.2016 13:00 11,3 C 86 % 1008,2 hPa 0,0 l/m 21,4 km/h W-SW 9,0 C 4,6 C 11,9 km/h
15.04.2016 14:00 13,6 C 77 % 1007,7 hPa 0,0 l/m 12,3 km/h S-SW 9,6 C 10,5 C 6,8 km/h
15.04.2016 15:00 13,3 C 75 % 1007,1 hPa 0,0 l/m 18,8 km/h S-SW 9,0 C 7,9 C 10,4 km/h
15.04.2016 16:00 14,1 C 71 % 1006,6 hPa 0,0 l/m 7,1 km/h S-SW 8,9 C 13,7 C 4,0 km/h
15.04.2016 17:00 14,9 C 69 % 1005,8 hPa 0,0 l/m 20,1 km/h S-SW 9,3 C 9,6 C 11,2 km/h
15.04.2016 18:00 14,1 C 71 % 1005,2 hPa 0,0 l/m 7,1 km/h SO 8,9 C 13,7 C 4,0 km/h
15.04.2016 19:00 12,5 C 75 % 1004,7 hPa 0,0 l/m 0,0 km/h S-SO 8,2 C 12,5 C 0,0 km/h
15.04.2016 20:00 11,8 C 80 % 1004,6 hPa 0,0 l/m 0,0 km/h O-NO 8,5 C 11,8 C 0,0 km/h
15.04.2016 21:00 10,5 C 85 % 1005,3 hPa 1,2 l/m 0,0 km/h O-SO 8,1 C 10,5 C 0,0 km/h
15.04.2016 22:00 10,4 C 86 % 1004,9 hPa 1,2 l/m 0,0 km/h SO 8,2 C 10,4 C 0,0 km/h
15.04.2016 23:00 10,4 C 87 % 1004,9 hPa 0,8 l/m 2,6 km/h SO 8,3 C 10,4 C 1,4 km/h
16.04.2016 00:00 10,2 C 86 % 1004,4 hPa 0,4 l/m 0,0 km/h SO 8,0 C 10,2 C 0,0 km/h
16.04.2016 01:00 10,1 C 86 % 1004,4 hPa 1,2 l/m 0,0 km/h S 7,9 C 10,1 C 0,0 km/h
16.04.2016 02:00 10,9 C 86 % 1003,3 hPa 0,4 l/m 5,8 km/h S 8,7 C 10,9 C 3,2 km/h
16.04.2016 03:00 11,3 C 87 % 1002,3 hPa 0,0 l/m 1,9 km/h SW 9,2 C 11,3 C 1,1 km/h
16.04.2016 04:00 11,6 C 85 % 1001,8 hPa 0,4 l/m 20,1 km/h W-SW 9,2 C 5,3 C 11,2 km/h
16.04.2016 05:00 12,7 C 77 % 1002,1 hPa 0,0 l/m 18,8 km/h S-SW 8,8 C 7,1 C 10,4 km/h
16.04.2016 06:00 11,6 C 80 % 1001,9 hPa 0,0 l/m 18,8 km/h W 8,3 C 5,7 C 10,4 km/h
16.04.2016 07:00 9,9 C 86 % 1003,2 hPa 0,4 l/m 0,0 km/h S 7,7 C 9,9 C 0,0 km/h
16.04.2016 08:00 10,9 C 86 % 1003,1 hPa 0,4 l/m 6,5 km/h SW 8,7 C 10,9 C 3,6 km/h
16.04.2016 09:00 12,5 C 81 % 1002,8 hPa 0,0 l/m 16,8 km/h W 9,3 C 7,5 C 9,4 km/h
16.04.2016 10:00 13,9 C 76 % 1003,3 hPa 0,0 l/m 24,0 km/h NW 9,7 C 7,3 C 13,3 km/h
16.04.2016 11:00 13,9 C 77 % 1003,4 hPa 0,0 l/m 0,0 km/h N-NO 9,9 C 13,9 C 0,0 km/h
16.04.2016 12:00 13,6 C 77 % 1003,4 hPa 0,0 l/m 1,3 km/h NO 9,6 C 13,6 C 0,7 km/h
16.04.2016 13:00 10,8 C 85 % 1005,1 hPa 3,3 l/m 0,0 km/h SO 8,4 C 10,8 C 0,0 km/h
16.04.2016 14:00 12,2 C 85 % 1005,2 hPa 0,0 l/m 16,2 km/h S 9,8 C 7,4 C 9,0 km/h
16.04.2016 15:00 13,3 C 83 % 1005,0 hPa 0,0 l/m 25,9 km/h S-SW 10,5 C 6,1 C 14,4 km/h
16.04.2016 16:00 12,7 C 85 % 1004,3 hPa 0,4 l/m 5,2 km/h S-SO 10,2 C 12,7 C 2,9 km/h
16.04.2016 17:00 13,8 C 82 % 1003,8 hPa 0,0 l/m 0,0 km/h SO 10,8 C 13,8 C 0,0 km/h
16.04.2016 18:00 12,4 C 85 % 1003,8 hPa 0,4 l/m 3,2 km/h O-SO 9,9 C 12,4 C 1,8 km/h
16.04.2016 19:00 11,9 C 87 % 1003,0 hPa 0,0 l/m 0,0 km/h SO 9,8 C 11,9 C 0,0 km/h
16.04.2016 20:00 10,4 C 87 % 1002,4 hPa 0,0 l/m 1,9 km/h SO 8,3 C 10,4 C 1,1 km/h
16.04.2016 21:00 10,4 C 86 % 1002,4 hPa 0,0 l/m 1,3 km/h NO 8,2 C 10,4 C 0,7 km/h
16.04.2016 22:00 10,4 C 86 % 1002,3 hPa 2,1 l/m 0,0 km/h SO 8,2 C 10,4 C 0,0 km/h
16.04.2016 23:00 10,2 C 85 % 1002,7 hPa 2,5 l/m 0,0 km/h SO 7,8 C 10,2 C 0,0 km/h
17.04.2016 00:00 10,1 C 85 % 1003,7 hPa 3,7 l/m 0,0 km/h SO 7,7 C 10,1 C 0,0 km/h
17.04.2016 01:00 9,9 C 84 % 1003,4 hPa 0,8 l/m 0,0 km/h S 7,3 C 9,9 C 0,0 km/h
17.04.2016 02:00 10,1 C 82 % 1003,3 hPa 0,8 l/m 9,7 km/h S-SW 7,2 C 7,9 C 5,4 km/h
17.04.2016 03:00 9,8 C 83 % 1003,1 hPa 0,8 l/m 21,4 km/h S 7,1 C 2,6 C 11,9 km/h
17.04.2016 04:00 9,9 C 87 % 1003,3 hPa 0,0 l/m 0,0 km/h SW 7,8 C 9,9 C 0,0 km/h
17.04.2016 05:00 10,1 C 87 % 1003,4 hPa 0,4 l/m 0,6 km/h N-NW 8,0 C 10,1 C 0,4 km/h
17.04.2016 06:00 8,9 C 87 % 1003,8 hPa 1,7 l/m 3,2 km/h N-NO 6,9 C 8,9 C 1,8 km/h
17.04.2016 07:00 7,8 C 86 % 1004,7 hPa 2,9 l/m 0,0 km/h N-NO 5,6 C 7,8 C 0,0 km/h
17.04.2016 08:00 7,3 C 86 % 1006,5 hPa 2,1 l/m 0,0 km/h N-NO 5,1 C 7,3 C 0,0 km/h
17.04.2016 09:00 6,4 C 87 % 1007,6 hPa 1,2 l/m 0,0 km/h N-NO 4,4 C 6,4 C 0,0 km/h
17.04.2016 10:00 6,4 C 87 % 1008,8 hPa 0,8 l/m 0,0 km/h N-NO 4,4 C 6,4 C 0,0 km/h
17.04.2016 11:00 8,7 C 87 % 1009,5 hPa 0,4 l/m 0,0 km/h SO 6,7 C 8,7 C 0,0 km/h
17.04.2016 12:00 11,2 C 84 % 1009,9 hPa 0,4 l/m 0,0 km/h S-SO 8,6 C 11,2 C 0,0 km/h
17.04.2016 13:00 15,3 C 69 % 1009,4 hPa 0,0 l/m 0,0 km/h W-NW 9,6 C 15,3 C 0,0 km/h
17.04.2016 14:00 12,4 C 70 % 1010,0 hPa 0,0 l/m 0,0 km/h N-NO 7,1 C 12,4 C 0,0 km/h
17.04.2016 15:00 12,1 C 69 % 1009,7 hPa 0,0 l/m 0,0 km/h SO 6,6 C 12,1 C 0,0 km/h
17.04.2016 16:00 11,2 C 75 % 1010,1 hPa 0,0 l/m 0,0 km/h O-SO 6,9 C 11,2 C 0,0 km/h
17.04.2016 17:00 10,0 C 79 % 1010,8 hPa 0,0 l/m 0,0 km/h N-NO 6,5 C 10,0 C 0,0 km/h
17.04.2016 18:00 8,1 C 83 % 1011,6 hPa 0,4 l/m 0,0 km/h N-NO 5,4 C 8,1 C 0,0 km/h
17.04.2016 19:00 7,2 C 85 % 1012,1 hPa 0,4 l/m 0,0 km/h N-NO 4,9 C 7,2 C 0,0 km/h
17.04.2016 20:00 6,8 C 86 % 1013,8 hPa 0,4 l/m 0,0 km/h SO 4,6 C 6,8 C 0,0 km/h
17.04.2016 21:00 6,5 C 87 % 1014,5 hPa 0,0 l/m 0,0 km/h SO 4,5 C 6,5 C 0,0 km/h
17.04.2016 22:00 6,1 C 87 % 1014,7 hPa 0,4 l/m 0,0 km/h SO 4,1 C 6,1 C 0,0 km/h
17.04.2016 23:00 5,8 C 87 % 1014,6 hPa 0,0 l/m 0,0 km/h SO 3,8 C 5,8 C 0,0 km/h
Min-Datum _ 11.04.16 14.04.16 16.04.16 - 11.04.16 - 11.04.16 17.04.16 11.04.16
_ Min-Zeit 06:41 18:41 04:41 - 00:41 - 06:41 03:41 00:41
Minimum _ 4,1 C 37 % 1001,8 hPa - 0,0 km/h - 1,5 C 2,6 C 0,0 km/h
Max-Datum _ 12.04.16 12.04.16 17.04.16 17.04.16 16.04.16 - 12.04.16 12.04.16 16.04.16
_ Max-Zeit 15:41 01:41 22:41 00:41 15:41 - 09:41 15:41 15:41
Maximum _ 24,9 C 87 % 1014,7 hPa 3,7 l/m 25,9 km/h
S-SW
- 13,6 C 24,9 C 14,4 km/h
S-SW
Durchschnitt _ 11,9 C 77 % 1007,3 hPa #57,6 l/m 3,4 km/h SO 7,8 C 11,2 C 1,9 km/h
www.sexauwetter.de